x

South Georgian Bay (45143) Wave Buoy

10:00pm - Sun 2nd Aug 2015 All times are CDT. -5 hours from GMT.

  • Sig Wave height 3.0ft
  • Peak Period 3s
  • Wind
    20mph, 25mph gusts
  • Sea Temp 67°f
  • Air Temp 66°f
  • Sea Pressure 1000.4mb
  • South Georgian Bay
  • South Georgian Bay

More Historic Weather Station data

Upgrade to MSW Pro to gain access to the past 30 days of data for over 8000 Wavebouys and Weather Stations around the globe.

Join Pro

Comparision Forecast

View Surf forecast
   
Sun 08/02 10:00pm 3ft 3s 20 25 mph 1000.4mb 67f 66f
9:00pm 2ft 4s 22 29 mph 1000.5mb 67f 65f
8:00pm 2ft 3s 18 20 mph 1003.1mb 67f 65f
7:00pm 1.6ft 3s 20 25 mph 1003.2mb 67f 65f
6:00pm 1.3ft 3s 20 22 mph 1002.7mb 67f 66f
5:00pm 1.6ft 3s 9 16 mph 1004.2mb 67f 65f
4:00pm 2ft 3s 18 22 mph 1005.3mb 67f 65f
3:00pm 2ft 4s 20 27 mph 1005.3mb 67f 65f
2:00pm 3ft 4s 13 16 mph 1005mb 67f 66f
1:00pm 2.5ft 3s 16 18 mph 1006.3mb 67f 64f
12:00pm 1.6ft 3s 13 18 mph 1005.8mb 68f 72f
11:00am 1.3ft 3s 11 13 mph 1006.2mb 68f 72f
10:00am 1.6ft 3s 11 13 mph 1007.5mb 68f 70f
9:00am 2ft 3s 16 18 mph 1007.2mb 68f 69f
8:00am 2ft 3s 16 18 mph 1007.9mb 68f 67f
7:00am 2ft 3s 18 20 mph 1008.3mb 67f 66f
6:00am 2ft 3s 18 20 mph 1008.7mb 67f 65f
5:00am 2ft 3s 18 20 mph 1008.4mb 67f 65f
4:00am 1.6ft 3s 16 18 mph 1008mb 67f 65f
3:00am 1.6ft 3s 13 18 mph 1008.7mb 67f 66f
2:00am 1.3ft 3s 13 18 mph 1009mb 67f 66f
1:00am 1ft 2s 11 13 mph 1008.9mb 67f 67f
12:00am 1ft 2s 11 13 mph 1009.5mb 67f 67f
Sat 08/01 11:00pm 1ft 2s 11
mph
1009.6mb 67f 67f
10:00pm 1ft 4s 9
mph
1009.8mb 67f 68f
9:00pm 1.3ft 4s 7 9 mph 1010mb 67f 68f
8:00pm 1.6ft 3s 9 11 mph 1009.7mb 68f 68f
7:00pm 1.6ft 3s 9 11 mph 1009.2mb 68f 69f
6:00pm 2ft 3s 11 13 mph 1008.8mb 68f 69f
5:00pm 2ft 3s 13 16 mph 1009mb 68f 70f
4:00pm 2.5ft 4s 11 13 mph 1009.1mb 68f 69f
3:00pm 2.5ft 4s 13 16 mph 1009.2mb 68f 69f
2:00pm 2.5ft 4s 16 20 mph 1009.4mb 68f 69f
1:00pm 2ft 4s 13 16 mph 1009.8mb 68f 69f
12:00pm 2ft 4s 13 16 mph 1009.9mb 67f 68f
11:00am 2ft 4s 13 16 mph 1010.2mb 67f 68f
10:00am 2.5ft 4s 11 13 mph 1010.2mb 67f 67f
9:00am 2.5ft 4s 13 16 mph 1009.9mb 67f 67f
8:00am 3ft 5s 18 20 mph 1010mb 67f 66f
7:00am 3ft 5s 18 22 mph 1009.6mb 67f 66f
6:00am 3ft 5s 16 20 mph 1009.6mb 67f 65f
5:00am 3ft 4s 18 22 mph 1009.1mb 67f 64f
4:00am 3.5ft 5s 18 22 mph 1008.8mb 67f 64f
3:00am 3.5ft 5s 18 22 mph 1008.6mb 67f 64f
2:00am 3.5ft 5s 20 22 mph 1008.4mb 67f 65f
1:00am 4ft 5s 20 22 mph 1008.3mb 67f 65f
12:00am 3.5ft 5s 22 27 mph 1008.2mb 68f 66f
Fri 07/31 11:00pm 3.5ft 5s 20 27 mph 1008mb 68f 67f
10:00pm 2.5ft 4s 18 20 mph 1008mb 68f 68f
9:00pm 2.5ft 4s 18 22 mph 1007.9mb 68f 69f
8:00pm 2.5ft 4s 16 18 mph 1007.8mb 68f 69f
7:00pm 2.5ft 4s 16 18 mph 1007.6mb 68f 70f
5:00pm 2ft 4s 16 18 mph 1007.1mb 68f 71f
4:00pm 2.5ft 4s 13 16 mph 1007mb 68f 71f
3:00pm 2.5ft 4s 11 16 mph 1007.1mb 68f 70f
2:00pm 1.6ft 3s 13 18 mph 1007.5mb 68f 71f
1:00pm 2ft 3s 11 13 mph 1007.9mb 68f 70f
12:00pm 2ft 3s 13 16 mph 1008.2mb 68f 70f
11:00am 2ft 3s 16 18 mph 1008.7mb 68f 70f
10:00am 1.6ft 3s 18 20 mph 1008.9mb 68f 70f
9:00am 2ft 3s 11 13 mph 1009.1mb 68f 68f
8:00am 2.5ft 4s 18 20 mph 1009.4mb 67f 67f
7:00am 2.5ft 4s 16 18 mph 1010mb 68f 65f
6:00am 2.5ft 4s 18 20 mph 1010mb 68f 65f
5:00am 2.5ft 3s 18 20 mph 1010.2mb 68f 65f
4:00am 2.5ft 4s 16 18 mph 1010.3mb 68f 65f
3:00am 2.5ft 5s 16 18 mph 1010.4mb 68f 66f
2:00am 3ft 5s 13 16 mph 1010.6mb 68f 66f
1:00am 3.5ft 5s 11 13 mph 1010.7mb 68f 67f
12:00am 3.5ft 5s 16 18 mph 1010.9mb 68f 67f
Thu 07/30 11:00pm 3ft 4s 18 20 mph 1011mb 68f 67f
10:00pm 2.5ft 4s 18 22 mph 1010.8mb 68f 68f
9:00pm 2ft 4s 16 18 mph 1010.9mb 68f 68f
8:00pm 2ft 4s 16 18 mph 1010.2mb 68f 69f
7:00pm 2.5ft 4s 9 11 mph 1010mb 68f 69f
6:00pm 2.5ft 4s 11 13 mph 1010mb 68f 70f
5:00pm 2.5ft 4s 11 13 mph 1010mb 68f 70f
4:00pm 3ft 4s 16 18 mph 1009.7mb 68f 71f
3:00pm 2.5ft 4s 20 25 mph 1009.3mb 69f 72f
2:00pm 2ft 4s 11 16 mph 1009.3mb 69f 72f
1:00pm 2ft 3s 13
mph
1009.4mb 69f 71f
12:00pm 2.5ft 4s 13 16 mph 1009.4mb 69f 71f
11:00am 2ft 3s 11 16 mph 1009.5mb 69f 70f
10:00am 2ft 3s 16 18 mph 1009.3mb 68f 71f
9:00am 1.6ft 3s 16 20 mph 1008.9mb 68f 71f
8:00am 1.6ft 3s 13 16 mph 1009.3mb 68f 69f
7:00am 1.6ft 3s 13 16 mph 1009.5mb 68f 68f
6:00am 1ft 3s 16 18 mph 1009.4mb 68f 68f
5:00am 1ft 3s 9 13 mph 1009.1mb 68f 69f